Time;durP1;ratioP1;P1;durP2;ratioP2;P2;SDS_P1;SDS_P2;PMS_P1;PMS_P2;Temp;Humidity;BMP_temperature;BMP_pressure;BME280_temperature;BME280_humidity;BME280_pressure;Samples;Min_cycle;Max_cycle;Signal;HPM_P1;HPM_P2
2022/03/18 00:00:38;;;;;;;12.40;4.67;;;9.50;99.90;;;;;;5057102;28;20467;-51
2022/03/18 00:03:06;;;;;;;5.17;3.20;;;9.50;99.90;;;;;;5056928;28;20516;-48
2022/03/18 00:05:36;;;;;;;8.97;3.60;;;9.40;99.90;;;;;;5056875;28;20512;-42
2022/03/18 00:08:05;;;;;;;7.43;4.17;;;9.40;99.90;;;;;;5056946;28;20445;-50
2022/03/18 00:10:34;;;;;;;12.17;4.67;;;9.40;99.90;;;;;;5056374;28;20548;-50
2022/03/18 00:13:02;;;;;;;7.70;4.57;;;9.50;99.90;;;;;;5057118;28;20449;-49
2022/03/18 00:15:29;;;;;;;4.10;3.10;;;9.40;99.90;;;;;;5056609;28;20431;-48
2022/03/18 00:17:57;;;;;;;5.90;3.77;;;9.40;99.90;;;;;;5057218;28;20425;-51
2022/03/18 00:20:24;;;;;;;6.60;3.57;;;9.40;99.90;;;;;;5056990;28;20440;-53
2022/03/18 00:22:52;;;;;;;6.27;4.20;;;9.50;99.90;;;;;;5057440;28;20447;-48
2022/03/18 00:25:20;;;;;;;7.77;4.00;;;9.50;99.90;;;;;;5056732;28;20458;-44
2022/03/18 00:27:55;;;;;;;4.80;3.20;;;9.50;99.90;;;;;;5056607;28;20460;-54
2022/03/18 00:30:21;;;;;;;27.03;3.80;;;9.50;99.90;;;;;;5056916;28;20459;-53
2022/03/18 00:32:51;;;;;;;7.47;3.60;;;9.50;99.90;;;;;;5056931;28;20503;-50
2022/03/18 00:35:18;;;;;;;12.90;4.40;;;9.40;99.90;;;;;;5057321;28;20472;-56
2022/03/18 00:37:45;;;;;;;4.90;3.43;;;9.40;99.90;;;;;;5056954;28;20468;-44
2022/03/18 00:40:12;;;;;;;7.73;3.73;;;9.40;99.90;;;;;;5056470;28;20425;-60
2022/03/18 00:42:39;;;;;;;7.37;3.77;;;9.40;99.90;;;;;;5056929;28;20443;-57
2022/03/18 00:45:08;;;;;;;7.57;3.30;;;9.40;99.90;;;;;;5056904;28;20442;-50
2022/03/18 00:53:07;;;;;;;7.53;4.70;;;9.40;99.90;;;;;;5056822;28;20877;-50
2022/03/18 00:55:35;;;;;;;9.93;3.70;;;9.30;99.90;;;;;;5056532;28;20432;-50
2022/03/18 00:58:01;;;;;;;5.17;3.77;;;9.30;99.90;;;;;;5056326;28;20864;-44
2022/03/18 01:00:30;;;;;;;6.87;3.60;;;9.30;99.90;;;;;;5055492;28;20456;-47
2022/03/18 01:02:57;;;;;;;5.60;3.33;;;9.30;99.90;;;;;;5055850;28;20508;-45
2022/03/18 01:05:26;;;;;;;10.53;3.37;;;9.30;99.90;;;;;;5056348;28;20460;-51
2022/03/18 01:07:53;;;;;;;6.30;3.90;;;9.30;99.90;;;;;;5056041;28;20424;-49
2022/03/18 01:10:21;;;;;;;8.00;4.00;;;9.30;99.90;;;;;;5055785;28;20515;-45
2022/03/18 01:12:48;;;;;;;7.87;4.13;;;9.40;99.90;;;;;;5055632;28;20470;-48
2022/03/18 01:15:15;;;;;;;9.17;4.00;;;9.40;99.90;;;;;;5055670;28;20455;-46
2022/03/18 01:17:46;;;;;;;6.03;4.00;;;9.40;99.90;;;;;;5056006;28;20452;-48
2022/03/18 01:20:13;;;;;;;7.93;4.10;;;9.40;99.90;;;;;;5055507;28;20460;-45
2022/03/18 01:22:41;;;;;;;9.53;3.60;;;9.40;99.90;;;;;;5055517;28;20520;-46
2022/03/18 01:25:09;;;;;;;18.50;3.80;;;9.40;99.90;;;;;;5056069;28;20456;-42
2022/03/18 01:27:36;;;;;;;8.87;3.80;;;9.40;99.90;;;;;;5055807;28;20451;-50
2022/03/18 01:30:03;;;;;;;10.43;4.20;;;9.40;99.90;;;;;;5056074;28;20448;-54
2022/03/18 01:32:32;;;;;;;6.70;3.47;;;9.40;99.90;;;;;;5055365;28;20490;-49
2022/03/18 01:35:02;;;;;;;5.40;3.40;;;9.40;99.90;;;;;;5054848;28;20464;-47
2022/03/18 01:37:30;;;;;;;7.97;3.83;;;9.40;99.90;;;;;;5055456;28;20444;-52
2022/03/18 01:39:57;;;;;;;10.00;3.97;;;9.40;99.90;;;;;;5055135;28;20488;-51
2022/03/18 01:42:24;;;;;;;4.13;3.20;;;9.40;99.90;;;;;;5055442;28;20448;-46
2022/03/18 01:44:51;;;;;;;9.33;4.33;;;9.30;99.90;;;;;;5054842;28;20451;-52
2022/03/18 01:47:19;;;;;;;14.00;3.93;;;9.30;99.90;;;;;;5054576;28;20433;-47
2022/03/18 01:49:50;;;;;;;7.33;4.33;;;9.40;99.90;;;;;;5054553;28;20471;-57
2022/03/18 01:52:20;;;;;;;8.63;3.57;;;9.40;99.90;;;;;;5054831;28;20440;-46
2022/03/18 01:54:48;;;;;;;11.97;4.10;;;9.40;99.90;;;;;;5054870;28;20728;-50
2022/03/18 01:57:20;;;;;;;7.10;4.20;;;9.40;99.90;;;;;;5054735;28;20540;-49
2022/03/18 01:59:48;;;;;;;11.07;3.87;;;9.40;99.90;;;;;;5054611;28;20448;-46
2022/03/18 02:02:16;;;;;;;8.87;3.33;;;9.40;99.90;;;;;;5054254;28;20460;-50
2022/03/18 02:04:44;;;;;;;8.73;3.37;;;9.40;99.90;;;;;;5055197;28;20454;-49
2022/03/18 02:07:12;;;;;;;7.03;3.80;;;9.40;99.90;;;;;;5056090;28;20454;-51
2022/03/18 02:09:41;;;;;;;5.47;3.47;;;9.40;99.90;;;;;;5055439;28;20432;-54
2022/03/18 02:12:10;;;;;;;4.33;2.63;;;9.40;99.90;;;;;;5055012;28;20467;-51
2022/03/18 02:14:40;;;;;;;9.10;3.50;;;9.30;99.90;;;;;;5054664;28;20471;-49
2022/03/18 02:17:08;;;;;;;10.43;2.97;;;9.40;99.90;;;;;;5055362;28;20474;-50
2022/03/18 02:19:37;;;;;;;5.90;3.47;;;9.40;99.90;;;;;;5055116;28;20468;-50
2022/03/18 02:22:09;;;;;;;8.47;4.23;;;9.40;99.90;;;;;;5055082;28;20456;-54
2022/03/18 02:24:39;;;;;;;8.03;3.90;;;9.40;99.90;;;;;;5054485;28;20476;-48
2022/03/18 02:27:06;;;;;;;17.83;5.77;;;9.40;99.90;;;;;;5054344;28;20500;-46
2022/03/18 02:29:33;;;;;;;8.63;3.50;;;9.30;99.90;;;;;;5054366;28;20456;-47
2022/03/18 02:32:01;;;;;;;8.50;3.87;;;9.30;99.90;;;;;;5054832;28;20502;-44
2022/03/18 02:34:28;;;;;;;10.17;4.03;;;9.30;99.90;;;;;;5055606;28;20468;-54
2022/03/18 02:36:56;;;;;;;9.17;3.63;;;9.30;99.90;;;;;;5055050;28;20535;-47
2022/03/18 02:39:22;;;;;;;4.93;2.60;;;9.30;99.90;;;;;;5054572;28;20436;-50
2022/03/18 02:41:51;;;;;;;5.27;2.80;;;9.30;99.90;;;;;;5054335;28;20468;-53
2022/03/18 02:44:18;;;;;;;8.53;3.00;;;9.30;99.90;;;;;;5053826;28;20455;-50
2022/03/18 02:46:45;;;;;;;14.13;4.03;;;9.30;99.90;;;;;;5054023;28;20555;-44
2022/03/18 02:49:12;;;;;;;9.83;3.77;;;9.30;99.90;;;;;;5054845;28;20411;-51
2022/03/18 02:51:41;;;;;;;6.97;3.43;;;9.30;99.90;;;;;;5054685;28;20506;-49
2022/03/18 02:54:09;;;;;;;9.23;3.70;;;9.30;99.90;;;;;;5054984;28;20457;-51
2022/03/18 02:56:37;;;;;;;5.57;3.43;;;9.30;99.90;;;;;;5054681;28;20436;-50
2022/03/18 02:59:08;;;;;;;8.17;3.10;;;9.30;99.90;;;;;;5054806;28;20483;-52
2022/03/18 03:01:42;;;;;;;13.47;2.87;;;9.30;99.90;;;;;;5054660;28;20507;-47
2022/03/18 03:04:09;;;;;;;12.80;3.07;;;9.30;99.90;;;;;;5057900;28;20499;-51
2022/03/18 03:09:20;;;;;;;8.50;2.50;;;9.30;99.90;;;;;;5058526;28;20491;-56
2022/03/18 03:11:47;;;;;;;11.30;3.30;;;9.30;99.90;;;;;;5058409;28;20478;-53
2022/03/18 03:14:16;;;;;;;11.17;2.73;;;9.20;99.90;;;;;;5058518;28;20432;-48
2022/03/18 03:16:46;;;;;;;4.23;2.03;;;9.20;99.90;;;;;;5057957;28;20412;-50
2022/03/18 03:19:14;;;;;;;5.23;2.70;;;9.20;99.90;;;;;;5058055;28;20463;-48
2022/03/18 03:21:41;;;;;;;6.70;2.60;;;9.20;99.90;;;;;;5058178;28;20471;-45
2022/03/18 03:24:08;;;;;;;6.67;2.47;;;9.20;99.90;;;;;;5058168;28;20462;-49
2022/03/18 03:26:35;;;;;;;14.63;2.60;;;9.20;99.90;;;;;;5057899;28;20460;-58
2022/03/18 03:29:31;;;;;;;8.00;2.90;;;9.20;99.90;;;;;;5057933;28;20459;-48
2022/03/18 03:32:03;;;;;;;8.43;3.20;;;9.10;99.90;;;;;;5057363;28;20510;-49
2022/03/18 03:34:34;;;;;;;4.20;2.70;;;9.10;99.90;;;;;;5057689;28;20425;-54
2022/03/18 03:37:06;;;;;;;4.80;2.53;;;9.10;99.90;;;;;;5057166;28;20520;-45
2022/03/18 03:39:41;;;;;;;7.67;2.87;;;9.10;99.90;;;;;;5057298;28;20464;-42
2022/03/18 03:42:11;;;;;;;8.77;2.47;;;9.10;99.90;;;;;;5057525;28;20416;-54
2022/03/18 03:44:59;;;;;;;7.50;2.53;;;9.10;99.90;;;;;;5057705;28;20412;-56
2022/03/18 03:47:27;;;;;;;6.97;2.17;;;9.10;99.90;;;;;;5057327;28;20436;-49
2022/03/18 03:49:54;;;;;;;9.70;2.97;;;9.20;99.90;;;;;;5056814;28;20467;-52
2022/03/18 03:52:21;;;;;;;9.57;2.77;;;9.20;99.90;;;;;;5057150;28;20498;-49
2022/03/18 03:54:49;;;;;;;14.93;2.70;;;9.20;99.90;;;;;;5057126;28;20472;-48
2022/03/18 03:57:16;;;;;;;15.27;2.60;;;9.20;99.90;;;;;;5057148;28;20444;-51
2022/03/18 03:59:43;;;;;;;8.00;2.87;;;9.20;99.90;;;;;;5056395;28;20456;-54
2022/03/18 04:02:12;;;;;;;8.40;2.93;;;9.20;99.90;;;;;;5056688;28;20440;-47
2022/03/18 04:04:39;;;;;;;6.43;2.63;;;9.20;99.90;;;;;;5056952;28;20503;-46
2022/03/18 04:07:08;;;;;;;10.00;2.90;;;9.20;99.90;;;;;;5056288;28;20424;-50
2022/03/18 04:09:37;;;;;;;11.03;2.80;;;9.20;99.90;;;;;;5056695;28;20468;-49
2022/03/18 04:12:05;;;;;;;6.47;2.47;;;9.20;99.90;;;;;;5056686;28;20459;-50
2022/03/18 04:14:32;;;;;;;10.30;2.87;;;9.20;99.90;;;;;;5055378;28;20448;-50
2022/03/18 04:16:59;;;;;;;8.57;2.67;;;9.20;99.90;;;;;;5056256;28;20575;-49
2022/03/18 04:19:27;;;;;;;7.87;2.87;;;9.20;99.90;;;;;;5056352;28;20421;-47
2022/03/18 04:21:54;;;;;;;6.33;1.47;;;9.10;99.90;;;;;;5056708;28;20478;-50
2022/03/18 04:24:21;;;;;;;10.03;2.33;;;9.10;99.90;;;;;;5056577;28;20543;-44
2022/03/18 04:26:50;;;;;;;7.37;2.90;;;9.00;99.90;;;;;;5056720;28;20435;-49
2022/03/18 04:29:17;;;;;;;7.50;2.20;;;9.00;99.90;;;;;;5056926;28;20408;-55
2022/03/18 04:31:45;;;;;;;6.10;2.93;;;8.90;99.90;;;;;;5056593;28;20475;-50
2022/03/18 04:34:12;;;;;;;3.83;2.13;;;8.90;99.90;;;;;;5056066;28;20461;-48
2022/03/18 04:36:40;;;;;;;15.53;3.17;;;8.90;99.90;;;;;;5056124;28;20466;-50
2022/03/18 04:39:07;;;;;;;3.47;1.80;;;8.90;99.90;;;;;;5056199;28;20468;-52
2022/03/18 04:41:34;;;;;;;6.13;2.20;;;9.00;99.90;;;;;;5056316;28;20504;-50
2022/03/18 04:44:02;;;;;;;8.70;2.60;;;8.90;99.90;;;;;;5056248;28;20478;-46
2022/03/18 04:46:31;;;;;;;10.37;2.63;;;8.90;99.90;;;;;;5056468;28;20451;-43
2022/03/18 04:48:57;;;;;;;11.30;2.70;;;8.90;99.90;;;;;;5055996;28;20426;-45
2022/03/18 04:51:26;;;;;;;4.57;1.70;;;8.90;99.90;;;;;;5055550;28;20576;-51
2022/03/18 04:53:55;;;;;;;5.93;2.37;;;8.90;99.90;;;;;;5055850;28;20426;-51
2022/03/18 04:59:05;;;;;;;5.43;2.20;;;8.90;99.90;;;;;;5055846;28;20452;-50
2022/03/18 05:01:32;;;;;;;3.37;1.80;;;9.00;99.90;;;;;;5055141;28;20546;-47
2022/03/18 05:03:59;;;;;;;6.30;1.83;;;9.00;99.90;;;;;;5055716;28;20450;-51
2022/03/18 05:06:26;;;;;;;5.20;2.73;;;8.90;99.90;;;;;;5055449;28;20468;-53
2022/03/18 05:08:54;;;;;;;6.10;2.27;;;8.90;99.90;;;;;;5055263;28;20452;-53
2022/03/18 05:11:21;;;;;;;4.30;2.10;;;8.80;99.90;;;;;;5054932;28;20494;-49
2022/03/18 05:13:48;;;;;;;8.77;2.63;;;8.80;99.90;;;;;;5055452;28;20436;-52
2022/03/18 05:16:15;;;;;;;10.10;2.87;;;8.90;99.90;;;;;;5055158;28;20448;-49
2022/03/18 05:18:42;;;;;;;7.27;2.57;;;8.80;99.90;;;;;;5055512;28;20447;-52
2022/03/18 05:21:09;;;;;;;6.47;2.07;;;8.70;99.90;;;;;;5055223;28;20450;-54
2022/03/18 05:23:37;;;;;;;8.47;2.40;;;8.70;99.90;;;;;;5055053;28;20479;-52
2022/03/18 05:26:05;;;;;;;11.80;2.70;;;8.70;99.90;;;;;;5054973;28;20491;-52
2022/03/18 05:28:32;;;;;;;5.40;2.93;;;8.70;99.90;;;;;;5054665;28;20544;-48
2022/03/18 05:31:00;;;;;;;4.90;2.30;;;8.60;99.90;;;;;;5046235;28;20444;-58
2022/03/18 05:33:27;;;;;;;5.57;2.13;;;8.60;99.90;;;;;;5038781;28;20456;-57
2022/03/18 05:35:54;;;;;;;10.60;1.80;;;8.50;99.90;;;;;;5037378;28;20459;-52
2022/03/18 05:38:21;;;;;;;4.23;2.10;;;8.50;99.90;;;;;;5035930;28;20475;-51
2022/03/18 05:40:48;;;;;;;8.73;3.00;;;8.50;99.90;;;;;;5035192;28;20496;-52
2022/03/18 05:43:16;;;;;;;6.87;2.67;;;8.50;99.90;;;;;;5035960;28;20444;-53
2022/03/18 05:45:43;;;;;;;9.53;2.60;;;8.50;99.90;;;;;;5035613;28;20843;-54
2022/03/18 05:48:09;;;;;;;4.97;2.50;;;8.50;99.90;;;;;;5036132;28;20980;-53
2022/03/18 05:50:36;;;;;;;8.27;2.27;;;8.40;99.90;;;;;;5036817;28;20530;-54
2022/03/18 05:53:04;;;;;;;10.03;2.80;;;8.40;99.90;;;;;;5038171;28;20484;-51
2022/03/18 05:56:52;;;;;;;9.13;2.20;;;8.40;99.90;;;;;;5037129;28;20444;-52
2022/03/18 05:58:20;;;;;;;8.10;2.03;;;8.40;99.90;;;;;;5035735;28;20539;-53
2022/03/18 06:00:48;;;;;;;18.03;4.07;;;8.40;99.90;;;;;;5035509;28;20539;-53
2022/03/18 06:03:15;;;;;;;7.20;1.87;;;8.40;99.90;;;;;;5035294;28;20464;-54
2022/03/18 06:05:42;;;;;;;12.47;2.50;;;8.40;99.90;;;;;;5035626;28;20448;-52
2022/03/18 06:13:40;;;;;;;7.33;2.63;;;8.40;99.90;;;;;;5035852;28;20793;-54
2022/03/18 06:16:06;;;;;;;5.43;1.93;;;8.30;99.90;;;;;;5037587;28;20448;-51
2022/03/18 06:18:33;;;;;;;4.60;2.50;;;8.30;99.90;;;;;;5037607;28;20468;-48
2022/03/18 06:21:00;;;;;;;13.10;2.27;;;8.30;99.90;;;;;;5035841;28;20440;-53
2022/03/18 06:23:27;;;;;;;8.83;1.60;;;8.30;99.90;;;;;;5035424;28;20833;-53
2022/03/18 06:25:53;;;;;;;4.60;1.97;;;8.30;99.90;;;;;;5034493;28;20447;-54
2022/03/18 06:28:20;;;;;;;8.60;2.07;;;8.20;99.90;;;;;;5034293;28;20444;-49
2022/03/18 06:30:48;;;;;;;11.67;2.30;;;8.20;99.90;;;;;;5034491;28;20498;-48
2022/03/18 06:33:15;;;;;;;14.90;2.50;;;8.20;99.90;;;;;;5036082;28;20483;-50
2022/03/18 06:35:42;;;;;;;8.90;2.83;;;8.10;99.90;;;;;;5036178;28;20968;-53
2022/03/18 06:38:09;;;;;;;11.07;1.90;;;8.10;99.90;;;;;;5037517;28;20923;-49
2022/03/18 06:40:36;;;;;;;10.20;2.47;;;8.20;99.90;;;;;;5038070;28;20538;-48
2022/03/18 06:43:02;;;;;;;10.30;2.87;;;8.20;99.90;;;;;;5036856;28;20532;-53
2022/03/18 06:45:29;;;;;;;14.13;2.77;;;8.20;99.90;;;;;;5037438;28;20821;-50
2022/03/18 06:47:57;;;;;;;8.60;2.03;;;8.20;99.90;;;;;;5037445;28;20548;-48
2022/03/18 06:50:25;;;;;;;18.00;3.63;;;8.20;99.90;;;;;;5036833;28;20444;-46
2022/03/18 06:52:51;;;;;;;5.27;2.07;;;8.20;99.90;;;;;;5036829;28;20506;-46
2022/03/18 06:55:18;;;;;;;9.77;2.17;;;8.20;99.90;;;;;;5036966;28;20474;-48
2022/03/18 06:57:45;;;;;;;18.57;2.87;;;8.20;99.90;;;;;;5036973;28;20478;-48
2022/03/18 07:00:13;;;;;;;8.73;2.70;;;8.20;99.90;;;;;;5036665;28;20448;-48
2022/03/18 07:02:40;;;;;;;10.23;2.27;;;8.30;99.90;;;;;;5037074;28;20784;-45
2022/03/18 07:05:09;;;;;;;16.40;3.60;;;8.40;99.90;;;;;;5036469;28;20452;-51
2022/03/18 07:07:36;;;;;;;7.63;2.73;;;8.30;99.90;;;;;;5037124;28;20892;-47
2022/03/18 07:10:03;;;;;;;8.60;2.80;;;8.40;99.90;;;;;;5036851;28;20750;-50
2022/03/18 07:12:30;;;;;;;6.00;1.90;;;8.50;99.90;;;;;;5036591;28;20479;-49
2022/03/18 07:14:57;;;;;;;10.30;2.47;;;8.50;99.90;;;;;;5037916;28;20856;-47
2022/03/18 07:20:13;;;;;;;3.93;2.07;;;8.50;99.90;;;;;;5033189;28;20458;-53
2022/03/18 07:22:39;;;;;;;14.40;2.57;;;8.60;99.90;;;;;;5038916;28;20744;-48
2022/03/18 07:25:07;;;;;;;7.13;2.43;;;8.60;99.90;;;;;;5003524;28;1024930;-49
2022/03/18 07:27:34;;;;;;;11.63;3.47;;;8.60;99.90;;;;;;5039651;28;20681;-49
2022/03/18 07:30:01;;;;;;;5.40;2.67;;;8.60;99.90;;;;;;5039969;28;20452;-49
2022/03/18 07:32:28;;;;;;;6.30;2.40;;;8.60;99.90;;;;;;5039746;28;20496;-51
2022/03/18 07:34:55;;;;;;;14.97;2.37;;;8.60;99.90;;;;;;5039044;28;20452;-48
2022/03/18 07:37:26;;;;;;;8.23;1.87;;;8.60;99.90;;;;;;5039739;28;20575;-48
2022/03/18 07:39:52;;;;;;;11.13;3.00;;;8.60;99.90;;;;;;5039641;28;20448;-49
2022/03/18 07:42:19;;;;;;;8.07;2.57;;;8.70;99.90;;;;;;5039101;28;20468;-48
2022/03/18 07:44:46;;;;;;;8.33;3.20;;;8.70;99.90;;;;;;5039107;28;20506;-49
2022/03/18 07:47:13;;;;;;;17.23;2.60;;;8.70;99.90;;;;;;5039347;28;20452;-52
2022/03/18 07:49:40;;;;;;;9.43;3.13;;;8.80;99.90;;;;;;5037902;28;20518;-47
2022/03/18 07:52:07;;;;;;;8.70;2.50;;;8.80;99.90;;;;;;5038897;28;20480;-48
2022/03/18 07:54:35;;;;;;;4.93;2.60;;;8.90;99.90;;;;;;5038988;28;20468;-45
2022/03/18 07:57:02;;;;;;;8.37;2.40;;;9.00;99.90;;;;;;5038826;28;20762;-49
2022/03/18 07:59:29;;;;;;;16.23;3.47;;;9.10;99.90;;;;;;5039122;28;20472;-50
2022/03/18 08:01:57;;;;;;;14.20;3.07;;;9.20;99.90;;;;;;5038651;28;20527;-49
2022/03/18 08:04:23;;;;;;;8.80;3.07;;;9.30;99.90;;;;;;5038663;28;20464;-48
2022/03/18 08:06:51;;;;;;;11.13;2.70;;;9.40;99.90;;;;;;5038937;28;20433;-47
2022/03/18 08:09:18;;;;;;;15.63;2.73;;;9.50;99.90;;;;;;5038459;28;20448;-50
2022/03/18 08:11:46;;;;;;;8.83;3.40;;;9.70;99.90;;;;;;5051219;28;20468;-46
2022/03/18 08:14:16;;;;;;;11.90;3.63;;;9.70;99.90;;;;;;5057043;28;20451;-51
2022/03/18 08:16:44;;;;;;;11.27;3.53;;;9.80;99.90;;;;;;5056261;28;20460;-48
2022/03/18 08:19:11;;;;;;;9.83;2.10;;;9.90;99.90;;;;;;5056595;28;20512;-51
2022/03/18 08:21:39;;;;;;;8.03;2.50;;;10.00;99.90;;;;;;5056748;28;20456;-51
2022/03/18 08:24:07;;;;;;;5.50;1.90;;;10.10;99.90;;;;;;5056633;28;20452;-52
2022/03/18 08:26:37;;;;;;;8.43;2.50;;;10.10;99.90;;;;;;5056295;28;20461;-48
2022/03/18 08:29:07;;;;;;;10.90;3.10;;;10.10;99.90;;;;;;5056511;28;20421;-48
2022/03/18 08:31:34;;;;;;;7.13;2.03;;;10.20;99.90;;;;;;5056884;28;20461;-47
2022/03/18 08:34:01;;;;;;;13.43;3.03;;;10.30;99.90;;;;;;5055807;28;20488;-47
2022/03/18 08:36:28;;;;;;;18.50;2.70;;;10.40;99.90;;;;;;5053709;28;20467;-49
2022/03/18 08:38:54;;;;;;;9.60;3.30;;;10.90;99.90;;;;;;5052795;28;20447;-48
2022/03/18 08:41:21;;;;;;;9.90;2.63;;;11.70;99.90;;;;;;5049715;28;20487;-48
2022/03/18 08:43:48;;;;;;;17.87;2.93;;;12.80;99.90;;;;;;5046311;28;20475;-50
2022/03/18 08:46:16;;;;;;;10.47;2.90;;;13.90;99.90;;;;;;5045287;28;20468;-49
2022/03/18 08:48:44;;;;;;;15.53;2.40;;;14.90;99.90;;;;;;5044187;28;20544;-49
2022/03/18 08:51:13;;;;;;;8.87;2.57;;;15.90;99.90;;;;;;5042930;28;20916;-48
2022/03/18 08:53:39;;;;;;;6.83;2.47;;;16.90;95.90;;;;;;5041742;28;20484;-49
2022/03/18 08:56:06;;;;;;;11.77;3.47;;;17.50;91.50;;;;;;5042072;28;20445;-50
2022/03/18 08:58:33;;;;;;;7.10;2.53;;;17.90;88.20;;;;;;5041035;28;20468;-52
2022/03/18 09:01:00;;;;;;;10.40;3.40;;;18.10;83.30;;;;;;5041702;28;20460;-50
2022/03/18 09:03:29;;;;;;;6.23;3.40;;;18.20;80.90;;;;;;5041666;28;20469;-52
2022/03/18 09:05:56;;;;;;;10.73;3.07;;;18.80;81.30;;;;;;5041879;28;20439;-53
2022/03/18 09:08:23;;;;;;;13.63;3.40;;;19.00;76.30;;;;;;5041332;28;20532;-53
2022/03/18 09:10:51;;;;;;;13.10;2.70;;;18.80;75.70;;;;;;5041689;28;20456;-50
2022/03/18 09:13:18;;;;;;;7.53;3.27;;;18.10;74.20;;;;;;5041822;28;20957;-50
2022/03/18 09:15:45;;;;;;;15.40;4.00;;;17.40;76.80;;;;;;5042308;28;20479;-50
2022/03/18 09:18:11;;;;;;;9.47;3.57;;;17.00;77.50;;;;;;5042715;28;20460;-52
2022/03/18 09:20:39;;;;;;;9.53;3.90;;;16.70;78.60;;;;;;5042990;28;20480;-52
2022/03/18 09:23:08;;;;;;;5.80;2.87;;;16.50;79.80;;;;;;5043023;28;20436;-53
2022/03/18 09:25:36;;;;;;;11.20;3.63;;;16.50;79.80;;;;;;5042743;28;20463;-51
2022/03/18 09:28:04;;;;;;;20.67;4.73;;;16.50;80.90;;;;;;5043750;28;20445;-50
2022/03/18 09:30:31;;;;;;;11.23;3.57;;;16.50;80.80;;;;;;5042782;28;20856;-50
2022/03/18 09:33:02;;;;;;;5.07;2.77;;;16.50;81.10;;;;;;5043043;28;20480;-48
2022/03/18 09:35:29;;;;;;;9.13;3.23;;;16.30;81.20;;;;;;5043194;28;20472;-53
2022/03/18 09:37:57;;;;;;;9.53;2.90;;;16.00;82.00;;;;;;5044408;28;20444;-49
2022/03/18 09:40:24;;;;;;;10.90;3.17;;;15.60;82.80;;;;;;5045060;28;20449;-53
2022/03/18 09:42:55;;;;;;;7.97;2.70;;;15.20;84.70;;;;;;5045882;28;20461;-47
2022/03/18 09:45:23;;;;;;;8.00;3.63;;;14.90;87.00;;;;;;5046165;28;20456;-49
2022/03/18 09:47:51;;;;;;;11.57;4.07;;;14.90;88.50;;;;;;5045823;28;20448;-46
2022/03/18 09:50:19;;;;;;;13.20;3.30;;;15.00;89.10;;;;;;5045983;28;20456;-53
2022/03/18 09:52:49;;;;;;;13.80;4.80;;;15.60;88.50;;;;;;5044376;28;20964;-52
2022/03/18 09:55:17;;;;;;;10.30;3.90;;;16.40;85.60;;;;;;5043044;28;20444;-49
2022/03/18 09:57:44;;;;;;;10.40;6.37;;;17.20;83.80;;;;;;5041551;28;20546;-49
2022/03/18 10:00:12;;;;;;;10.77;3.97;;;18.20;80.10;;;;;;5041355;28;20475;-51
2022/03/18 10:02:39;;;;;;;8.53;4.30;;;19.20;76.10;;;;;;5040204;28;20467;-49
2022/03/18 10:05:11;;;;;;;9.50;4.00;;;20.10;71.60;;;;;;5039300;28;20540;-51
2022/03/18 10:07:39;;;;;;;8.33;3.80;;;20.60;68.90;;;;;;5039893;28;20465;-50
2022/03/18 10:10:15;;;;;;;11.90;5.40;;;21.10;65.30;;;;;;5040016;28;20490;-49
2022/03/18 10:12:45;;;;;;;13.27;7.53;;;21.10;63.10;;;;;;5042338;28;20529;-49
2022/03/18 10:15:15;;;;;;;8.17;4.03;;;21.30;62.70;;;;;;5044012;28;20536;-51
2022/03/18 10:17:46;;;;;;;7.80;4.40;;;21.40;61.30;;;;;;5043395;28;20455;-53
2022/03/18 10:20:32;;;;;;;11.00;3.97;;;21.20;60.80;;;;;;5043726;28;20433;-49
2022/03/18 10:23:04;;;;;;;9.63;3.87;;;20.90;60.30;;;;;;5043951;28;20927;-53
2022/03/18 10:25:39;;;;;;;11.90;5.93;;;21.00;61.50;;;;;;5044306;28;20485;-47
2022/03/18 10:28:09;;;;;;;15.93;5.17;;;21.10;60.90;;;;;;5044047;28;20432;-50
2022/03/18 10:30:37;;;;;;;20.50;5.67;;;21.30;59.90;;;;;;5043595;28;20444;-52
2022/03/18 10:33:05;;;;;;;12.97;4.70;;;21.50;59.10;;;;;;5043846;28;20514;-52
2022/03/18 10:38:33;;;;;;;10.83;4.60;;;21.90;57.70;;;;;;5043716;28;20485;-52
2022/03/18 10:41:05;;;;;;;8.20;3.83;;;22.00;56.70;;;;;;5043121;28;20563;-54
2022/03/18 10:43:52;;;;;;;13.97;5.93;;;21.90;56.20;;;;;;5042889;28;20459;-48
2022/03/18 10:46:19;;;;;;;10.40;4.20;;;21.60;56.50;;;;;;5043493;28;20432;-52
2022/03/18 10:49:02;;;;;;;9.40;4.70;;;21.60;56.90;;;;;;5044047;28;20531;-53
2022/03/18 10:51:29;;;;;;;9.27;4.20;;;21.50;55.90;;;;;;5043075;28;20452;-52
2022/03/18 10:53:57;;;;;;;16.80;5.03;;;20.90;56.60;;;;;;5042967;28;20492;-49
2022/03/18 10:56:25;;;;;;;11.80;4.13;;;20.80;57.40;;;;;;5044659;28;20443;-49
2022/03/18 10:58:53;;;;;;;22.90;4.97;;;20.80;57.90;;;;;;5044354;28;20914;-47
2022/03/18 11:01:20;;;;;;;16.33;5.20;;;20.60;57.50;;;;;;5043334;28;20469;-51
2022/03/18 11:03:48;;;;;;;9.87;5.23;;;20.30;58.30;;;;;;5043220;28;20428;-52
2022/03/18 11:06:18;;;;;;;15.60;4.93;;;20.20;58.80;;;;;;5043383;28;20511;-48
2022/03/18 11:08:47;;;;;;;9.93;4.47;;;19.90;58.00;;;;;;5023811;28;20461;-54
2022/03/18 11:11:18;;;;;;;11.50;4.30;;;19.80;58.90;;;;;;5023951;28;20531;-52
2022/03/18 11:13:50;;;;;;;11.40;4.53;;;19.60;59.20;;;;;;5023602;28;20565;-51
2022/03/18 11:16:33;;;;;;;10.00;4.67;;;19.30;59.30;;;;;;5023581;28;20480;-51
2022/03/18 11:19:03;;;;;;;8.53;4.93;;;18.80;60.00;;;;;;5024614;28;20450;-52
2022/03/18 11:21:38;;;;;;;15.90;5.07;;;18.50;61.80;;;;;;5023997;28;20468;-47
2022/03/18 11:24:08;;;;;;;11.60;5.00;;;18.30;62.20;;;;;;5024312;28;20461;-52
2022/03/18 11:26:36;;;;;;;11.57;4.57;;;18.00;63.30;;;;;;5024158;28;20945;-50
2022/03/18 11:29:07;;;;;;;12.60;4.13;;;17.70;63.20;;;;;;5024707;28;20445;-49
2022/03/18 11:31:35;;;;;;;7.03;3.80;;;17.50;64.00;;;;;;5025111;28;20473;-47
2022/03/18 11:34:10;;;;;;;13.00;4.07;;;17.40;64.10;;;;;;5024316;28;20560;-48
2022/03/18 11:36:38;;;;;;;9.50;4.90;;;17.20;63.40;;;;;;5023435;28;20449;-50
2022/03/18 11:39:08;;;;;;;13.87;4.43;;;17.00;63.60;;;;;;5024580;28;20445;-46
2022/03/18 11:41:50;;;;;;;10.87;4.13;;;16.70;64.80;;;;;;5025874;28;20449;-48
2022/03/18 11:44:42;;;;;;;10.27;4.73;;;16.40;65.70;;;;;;5025756;28;20473;-51
2022/03/18 11:47:44;;;;;;;9.23;4.00;;;16.20;66.00;;;;;;5007842;28;20453;-47
2022/03/18 11:50:48;;;;;;;7.63;4.23;;;16.10;66.60;;;;;;5025868;28;20424;-46
2022/03/18 11:53:31;;;;;;;9.90;4.03;;;16.00;67.70;;;;;;5031614;28;20488;-51
2022/03/18 11:56:09;;;;;;;11.53;4.60;;;15.90;68.20;;;;;;5025563;28;20457;-46
2022/03/18 11:58:36;;;;;;;13.40;3.87;;;15.90;67.30;;;;;;5027324;28;20479;-52
2022/03/18 12:01:04;;;;;;;15.63;4.60;;;15.70;67.40;;;;;;5026922;28;20413;-50
2022/03/18 12:03:37;;;;;;;17.27;4.00;;;15.60;67.80;;;;;;5027165;28;20476;-48
2022/03/18 12:06:04;;;;;;;8.30;3.80;;;15.60;67.80;;;;;;5026562;28;20434;-46
2022/03/18 12:09:00;;;;;;;11.90;3.80;;;15.50;67.70;;;;;;5026908;28;20503;-50
2022/03/18 12:11:46;;;;;;;11.50;4.10;;;15.30;68.10;;;;;;5027290;28;20425;-47
2022/03/18 12:14:13;;;;;;;10.27;3.97;;;15.20;69.30;;;;;;5027156;28;20476;-47
2022/03/18 12:16:40;;;;;;;12.20;4.10;;;15.30;70.20;;;;;;5026964;28;20429;-49
2022/03/18 12:19:12;;;;;;;5.07;4.03;;;15.40;69.80;;;;;;5027303;28;20448;-52
2022/03/18 12:21:44;;;;;;;10.50;3.20;;;15.40;68.20;;;;;;5026752;28;20449;-48
2022/03/18 12:24:13;;;;;;;10.23;4.43;;;15.40;69.00;;;;;;5027070;28;20436;-45
2022/03/18 12:26:41;;;;;;;11.73;4.90;;;15.50;69.50;;;;;;5026364;28;20536;-48
2022/03/18 12:29:09;;;;;;;8.17;3.93;;;15.50;69.10;;;;;;5026288;28;20441;-46
2022/03/18 12:31:39;;;;;;;12.13;4.43;;;15.40;67.80;;;;;;5026338;28;20476;-45
2022/03/18 12:34:14;;;;;;;11.00;3.97;;;15.40;69.10;;;;;;5025740;28;20477;-48
2022/03/18 12:36:44;;;;;;;7.50;3.33;;;15.40;69.00;;;;;;5027450;28;20464;-51
2022/03/18 12:39:13;;;;;;;8.70;3.23;;;15.50;68.30;;;;;;5026646;28;20460;-52
2022/03/18 12:41:42;;;;;;;5.83;2.60;;;15.50;67.50;;;;;;5026665;28;20500;-47
2022/03/18 12:44:09;;;;;;;8.50;3.07;;;15.50;65.70;;;;;;5044983;28;20471;-50
2022/03/18 12:46:39;;;;;;;9.13;3.10;;;15.50;66.10;;;;;;5045929;28;20464;-49
2022/03/18 12:49:16;;;;;;;10.20;4.87;;;15.50;66.30;;;;;;5045685;28;20523;-52
2022/03/18 12:51:51;;;;;;;9.10;2.90;;;15.50;66.30;;;;;;5046400;28;20486;-49
2022/03/18 12:54:18;;;;;;;12.53;2.60;;;15.60;66.20;;;;;;5045910;28;20475;-55
2022/03/18 12:56:45;;;;;;;4.93;2.63;;;15.60;65.60;;;;;;5045469;28;20466;-52
2022/03/18 12:59:15;;;;;;;6.47;2.40;;;15.80;64.60;;;;;;5045829;28;20463;-47
2022/03/18 13:01:51;;;;;;;3.80;2.60;;;15.70;64.40;;;;;;5045361;28;20441;-54
2022/03/18 13:04:23;;;;;;;6.50;2.83;;;15.80;64.70;;;;;;5038430;28;20500;-53
2022/03/18 13:06:57;;;;;;;6.50;2.97;;;15.80;65.10;;;;;;5026163;28;20787;-46
2022/03/18 13:09:25;;;;;;;11.50;3.10;;;15.80;63.90;;;;;;5025412;28;20437;-51
2022/03/18 13:11:52;;;;;;;11.00;2.97;;;16.00;63.70;;;;;;5025083;28;20445;-51
2022/03/18 13:14:37;;;;;;;15.10;2.90;;;16.10;63.50;;;;;;5025194;28;20496;-51
2022/03/18 13:17:05;;;;;;;5.20;2.13;;;16.10;61.50;;;;;;5025629;28;20444;-47
2022/03/18 13:19:43;;;;;;;8.10;2.43;;;16.00;61.90;;;;;;5024293;28;20470;-50